Archival Weather

Abadan

Abadan, Iran (OIAA)

Report from: Tuesday, July 19, 2022 9:00 PM UTC
Current time: Tuesday, July 16, 2024 3:34 PM UTC

Current weather – Weather history – Daily summaries
Weather forecast

Temperature36.0°C (96.8°F)
Heat index34.5°C (94.1°F)
Dew point11.0°C (51.8°F)
Winds 8 kts (4.1 m/s, 9.2 mph) Northwest (310°)
Clouds Sky clear
Altimeter29.41 in.Hg (996 mB)
Relative humidity22 %
Density altitude3,143 ft. (958 m)
Remarks Ceiling and visibility OK
Flight conditions Visual Meteorological Conditions
Raw dataOIAA 192100Z 31008KT CAVOK 36/11 Q0996
An error has occurred. This application may no longer respond until reloaded. Reload 🗙